sensor_id;sensor_type;location;lat;lon;timestamp;P1;durP1;ratioP1;P2;durP2;ratioP2
37943;SDS011;23767;42.024;23.086;2023-04-15T00:01:41;6.22;;;1.85;;
37943;SDS011;23767;42.024;23.086;2023-04-15T00:04:07;6.97;;;2.15;;
37943;SDS011;23767;42.024;23.086;2023-04-15T00:06:33;6.68;;;2.30;;
37943;SDS011;23767;42.024;23.086;2023-04-15T00:08:59;4.90;;;2.20;;
37943;SDS011;23767;42.024;23.086;2023-04-15T00:11:25;5.88;;;2.88;;
37943;SDS011;23767;42.024;23.086;2023-04-15T00:13:51;5.93;;;2.50;;
37943;SDS011;23767;42.024;23.086;2023-04-15T00:16:18;7.90;;;2.95;;
37943;SDS011;23767;42.024;23.086;2023-04-15T00:18:44;7.85;;;2.35;;
37943;SDS011;23767;42.024;23.086;2023-04-15T00:21:10;6.57;;;2.50;;
37943;SDS011;23767;42.024;23.086;2023-04-15T00:23:36;5.10;;;2.25;;
37943;SDS011;23767;42.024;23.086;2023-04-15T00:26:02;5.07;;;2.13;;
37943;SDS011;23767;42.024;23.086;2023-04-15T00:28:28;9.63;;;2.42;;
37943;SDS011;23767;42.024;23.086;2023-04-15T00:30:55;4.30;;;2.25;;
37943;SDS011;23767;42.024;23.086;2023-04-15T00:33:21;5.47;;;2.55;;
37943;SDS011;23767;42.024;23.086;2023-04-15T00:35:47;5.07;;;2.70;;
37943;SDS011;23767;42.024;23.086;2023-04-15T00:38:13;5.13;;;2.72;;
37943;SDS011;23767;42.024;23.086;2023-04-15T00:40:39;5.80;;;2.65;;
37943;SDS011;23767;42.024;23.086;2023-04-15T00:43:06;8.32;;;3.63;;
37943;SDS011;23767;42.024;23.086;2023-04-15T00:45:32;13.15;;;5.65;;
37943;SDS011;23767;42.024;23.086;2023-04-15T00:47:58;27.83;;;13.18;;
37943;SDS011;23767;42.024;23.086;2023-04-15T00:50:24;38.95;;;20.02;;
37943;SDS011;23767;42.024;23.086;2023-04-15T00:52:50;66.05;;;33.40;;
37943;SDS011;23767;42.024;23.086;2023-04-15T00:55:16;62.50;;;27.35;;
37943;SDS011;23767;42.024;23.086;2023-04-15T00:57:43;117.35;;;50.38;;
37943;SDS011;23767;42.024;23.086;2023-04-15T01:00:09;34.85;;;16.05;;
37943;SDS011;23767;42.024;23.086;2023-04-15T01:02:36;56.70;;;23.58;;
37943;SDS011;23767;42.024;23.086;2023-04-15T01:05:03;35.75;;;17.92;;
37943;SDS011;23767;42.024;23.086;2023-04-15T01:07:29;12.25;;;6.10;;
37943;SDS011;23767;42.024;23.086;2023-04-15T01:09:55;13.40;;;6.40;;
37943;SDS011;23767;42.024;23.086;2023-04-15T01:12:22;10.07;;;5.32;;
37943;SDS011;23767;42.024;23.086;2023-04-15T01:14:49;8.27;;;3.50;;
37943;SDS011;23767;42.024;23.086;2023-04-15T01:17:15;6.95;;;3.40;;
37943;SDS011;23767;42.024;23.086;2023-04-15T01:19:42;7.50;;;3.50;;
37943;SDS011;23767;42.024;23.086;2023-04-15T01:22:08;8.57;;;3.55;;
37943;SDS011;23767;42.024;23.086;2023-04-15T01:24:34;7.43;;;3.20;;
37943;SDS011;23767;42.024;23.086;2023-04-15T01:27:00;23.83;;;11.13;;
37943;SDS011;23767;42.024;23.086;2023-04-15T01:29:27;11.27;;;4.47;;
37943;SDS011;23767;42.024;23.086;2023-04-15T01:31:54;8.80;;;3.53;;
37943;SDS011;23767;42.024;23.086;2023-04-15T01:34:20;5.35;;;2.90;;
37943;SDS011;23767;42.024;23.086;2023-04-15T01:36:47;5.53;;;3.20;;
37943;SDS011;23767;42.024;23.086;2023-04-15T01:39:13;5.90;;;3.25;;
37943;SDS011;23767;42.024;23.086;2023-04-15T01:41:39;5.45;;;2.95;;
37943;SDS011;23767;42.024;23.086;2023-04-15T01:44:06;6.43;;;3.28;;
37943;SDS011;23767;42.024;23.086;2023-04-15T01:46:32;7.05;;;3.25;;
37943;SDS011;23767;42.024;23.086;2023-04-15T01:48:58;5.90;;;3.03;;
37943;SDS011;23767;42.024;23.086;2023-04-15T01:51:24;6.20;;;3.10;;
37943;SDS011;23767;42.024;23.086;2023-04-15T01:53:51;6.38;;;4.00;;
37943;SDS011;23767;42.024;23.086;2023-04-15T01:56:17;9.20;;;3.90;;
37943;SDS011;23767;42.024;23.086;2023-04-15T01:58:43;6.35;;;3.72;;
37943;SDS011;23767;42.024;23.086;2023-04-15T02:01:09;7.43;;;4.30;;
37943;SDS011;23767;42.024;23.086;2023-04-15T02:03:37;6.25;;;3.85;;
37943;SDS011;23767;42.024;23.086;2023-04-15T02:06:03;7.55;;;4.13;;
37943;SDS011;23767;42.024;23.086;2023-04-15T02:08:30;7.72;;;4.28;;
37943;SDS011;23767;42.024;23.086;2023-04-15T02:10:56;5.57;;;3.05;;
37943;SDS011;23767;42.024;23.086;2023-04-15T02:13:22;8.02;;;3.80;;
37943;SDS011;23767;42.024;23.086;2023-04-15T02:15:48;6.80;;;3.47;;
37943;SDS011;23767;42.024;23.086;2023-04-15T02:18:16;5.78;;;3.45;;
37943;SDS011;23767;42.024;23.086;2023-04-15T02:20:42;5.97;;;3.35;;
37943;SDS011;23767;42.024;23.086;2023-04-15T02:23:09;5.50;;;3.00;;
37943;SDS011;23767;42.024;23.086;2023-04-15T02:25:35;5.75;;;3.33;;
37943;SDS011;23767;42.024;23.086;2023-04-15T02:28:03;6.78;;;3.60;;
37943;SDS011;23767;42.024;23.086;2023-04-15T02:30:30;7.80;;;3.40;;
37943;SDS011;23767;42.024;23.086;2023-04-15T02:32:56;8.23;;;3.75;;
37943;SDS011;23767;42.024;23.086;2023-04-15T02:35:22;10.10;;;3.60;;
37943;SDS011;23767;42.024;23.086;2023-04-15T02:37:50;9.45;;;3.83;;
37943;SDS011;23767;42.024;23.086;2023-04-15T02:40:16;7.18;;;3.40;;
37943;SDS011;23767;42.024;23.086;2023-04-15T02:42:43;7.20;;;3.90;;
37943;SDS011;23767;42.024;23.086;2023-04-15T02:45:09;7.82;;;4.28;;
37943;SDS011;23767;42.024;23.086;2023-04-15T02:47:39;7.38;;;4.22;;
37943;SDS011;23767;42.024;23.086;2023-04-15T02:50:09;7.13;;;4.45;;
37943;SDS011;23767;42.024;23.086;2023-04-15T02:52:38;7.30;;;4.18;;
37943;SDS011;23767;42.024;23.086;2023-04-15T02:55:05;9.75;;;4.65;;
37943;SDS011;23767;42.024;23.086;2023-04-15T02:57:32;6.65;;;4.20;;
37943;SDS011;23767;42.024;23.086;2023-04-15T03:00:00;6.68;;;3.72;;
37943;SDS011;23767;42.024;23.086;2023-04-15T03:02:26;8.25;;;4.22;;
37943;SDS011;23767;42.024;23.086;2023-04-15T03:04:53;7.50;;;4.10;;
37943;SDS011;23767;42.024;23.086;2023-04-15T03:07:19;9.13;;;4.32;;
37943;SDS011;23767;42.024;23.086;2023-04-15T03:09:45;6.95;;;3.67;;
37943;SDS011;23767;42.024;23.086;2023-04-15T03:12:11;7.63;;;4.10;;
37943;SDS011;23767;42.024;23.086;2023-04-15T03:14:37;7.63;;;4.05;;
37943;SDS011;23767;42.024;23.086;2023-04-15T03:17:03;9.40;;;4.22;;
37943;SDS011;23767;42.024;23.086;2023-04-15T03:19:29;8.40;;;4.53;;
37943;SDS011;23767;42.024;23.086;2023-04-15T03:21:55;6.72;;;3.50;;
37943;SDS011;23767;42.024;23.086;2023-04-15T03:24:22;10.13;;;4.53;;
37943;SDS011;23767;42.024;23.086;2023-04-15T03:26:48;7.43;;;4.43;;
37943;SDS011;23767;42.024;23.086;2023-04-15T03:29:14;11.13;;;4.22;;
37943;SDS011;23767;42.024;23.086;2023-04-15T03:31:40;8.35;;;4.40;;
37943;SDS011;23767;42.024;23.086;2023-04-15T03:34:06;8.70;;;4.20;;
37943;SDS011;23767;42.024;23.086;2023-04-15T03:36:33;7.60;;;4.28;;
37943;SDS011;23767;42.024;23.086;2023-04-15T03:38:59;8.40;;;4.00;;
37943;SDS011;23767;42.024;23.086;2023-04-15T03:41:26;11.80;;;5.30;;
37943;SDS011;23767;42.024;23.086;2023-04-15T03:43:52;9.10;;;4.18;;
37943;SDS011;23767;42.024;23.086;2023-04-15T03:46:18;8.52;;;4.00;;
37943;SDS011;23767;42.024;23.086;2023-04-15T03:48:45;6.70;;;3.80;;
37943;SDS011;23767;42.024;23.086;2023-04-15T03:51:12;8.02;;;3.40;;
37943;SDS011;23767;42.024;23.086;2023-04-15T03:53:38;9.57;;;3.95;;
37943;SDS011;23767;42.024;23.086;2023-04-15T03:56:04;7.50;;;3.47;;
37943;SDS011;23767;42.024;23.086;2023-04-15T03:58:30;9.68;;;4.13;;
37943;SDS011;23767;42.024;23.086;2023-04-15T04:00:56;12.43;;;5.47;;
37943;SDS011;23767;42.024;23.086;2023-04-15T04:03:22;11.27;;;5.25;;
37943;SDS011;23767;42.024;23.086;2023-04-15T04:05:48;10.88;;;6.13;;
37943;SDS011;23767;42.024;23.086;2023-04-15T04:08:14;15.20;;;5.35;;
37943;SDS011;23767;42.024;23.086;2023-04-15T04:10:41;10.48;;;6.25;;
37943;SDS011;23767;42.024;23.086;2023-04-15T04:13:07;8.82;;;5.05;;
37943;SDS011;23767;42.024;23.086;2023-04-15T04:15:33;7.90;;;5.05;;
37943;SDS011;23767;42.024;23.086;2023-04-15T04:17:59;7.63;;;4.80;;
37943;SDS011;23767;42.024;23.086;2023-04-15T04:20:25;7.70;;;5.10;;
37943;SDS011;23767;42.024;23.086;2023-04-15T04:22:51;10.80;;;5.65;;
37943;SDS011;23767;42.024;23.086;2023-04-15T04:25:17;62.23;;;8.17;;
37943;SDS011;23767;42.024;23.086;2023-04-15T04:27:43;109.97;;;10.07;;
37943;SDS011;23767;42.024;23.086;2023-04-15T04:30:10;152.03;;;13.27;;
37943;SDS011;23767;42.024;23.086;2023-04-15T04:32:36;19.40;;;8.37;;
37943;SDS011;23767;42.024;23.086;2023-04-15T04:35:02;57.67;;;9.13;;
37943;SDS011;23767;42.024;23.086;2023-04-15T04:37:28;10.93;;;8.20;;
37943;SDS011;23767;42.024;23.086;2023-04-15T04:39:55;11.60;;;8.10;;
37943;SDS011;23767;42.024;23.086;2023-04-15T04:42:21;10.33;;;7.20;;
37943;SDS011;23767;42.024;23.086;2023-04-15T04:44:47;11.67;;;7.90;;
37943;SDS011;23767;42.024;23.086;2023-04-15T04:47:13;12.57;;;6.43;;
37943;SDS011;23767;42.024;23.086;2023-04-15T04:49:39;12.87;;;6.87;;
37943;SDS011;23767;42.024;23.086;2023-04-15T04:52:05;11.70;;;6.20;;
37943;SDS011;23767;42.024;23.086;2023-04-15T04:54:31;12.77;;;7.63;;
37943;SDS011;23767;42.024;23.086;2023-04-15T04:56:58;9.40;;;6.00;;
37943;SDS011;23767;42.024;23.086;2023-04-15T04:59:24;7.75;;;5.75;;
37943;SDS011;23767;42.024;23.086;2023-04-15T05:01:50;9.07;;;5.63;;
37943;SDS011;23767;42.024;23.086;2023-04-15T05:04:17;11.18;;;7.30;;
37943;SDS011;23767;42.024;23.086;2023-04-15T05:06:43;14.40;;;7.10;;
37943;SDS011;23767;42.024;23.086;2023-04-15T05:09:09;9.13;;;6.03;;
37943;SDS011;23767;42.024;23.086;2023-04-15T05:11:35;12.77;;;6.90;;
37943;SDS011;23767;42.024;23.086;2023-04-15T05:14:01;9.80;;;6.75;;
37943;SDS011;23767;42.024;23.086;2023-04-15T05:16:27;17.73;;;10.02;;
37943;SDS011;23767;42.024;23.086;2023-04-15T05:18:53;16.35;;;10.40;;
37943;SDS011;23767;42.024;23.086;2023-04-15T05:21:19;16.30;;;11.23;;
37943;SDS011;23767;42.024;23.086;2023-04-15T05:23:46;13.57;;;8.30;;
37943;SDS011;23767;42.024;23.086;2023-04-15T05:26:12;14.48;;;8.77;;
37943;SDS011;23767;42.024;23.086;2023-04-15T05:28:38;13.82;;;7.43;;
37943;SDS011;23767;42.024;23.086;2023-04-15T05:31:04;13.10;;;7.28;;
37943;SDS011;23767;42.024;23.086;2023-04-15T05:33:31;10.52;;;6.38;;
37943;SDS011;23767;42.024;23.086;2023-04-15T05:35:57;11.25;;;6.60;;
37943;SDS011;23767;42.024;23.086;2023-04-15T05:38:23;12.98;;;6.60;;
37943;SDS011;23767;42.024;23.086;2023-04-15T05:40:49;10.63;;;6.60;;
37943;SDS011;23767;42.024;23.086;2023-04-15T05:43:15;13.75;;;7.03;;
37943;SDS011;23767;42.024;23.086;2023-04-15T05:45:41;12.00;;;6.93;;
37943;SDS011;23767;42.024;23.086;2023-04-15T05:48:07;14.25;;;6.95;;
37943;SDS011;23767;42.024;23.086;2023-04-15T05:50:33;11.10;;;6.57;;
37943;SDS011;23767;42.024;23.086;2023-04-15T05:52:59;10.88;;;7.72;;
37943;SDS011;23767;42.024;23.086;2023-04-15T05:55:26;12.52;;;7.85;;
37943;SDS011;23767;42.024;23.086;2023-04-15T05:57:52;15.20;;;8.55;;
37943;SDS011;23767;42.024;23.086;2023-04-15T06:00:18;14.52;;;7.95;;
37943;SDS011;23767;42.024;23.086;2023-04-15T06:02:44;16.40;;;8.10;;
37943;SDS011;23767;42.024;23.086;2023-04-15T06:05:10;12.13;;;7.50;;
37943;SDS011;23767;42.024;23.086;2023-04-15T06:07:36;13.13;;;7.72;;
37943;SDS011;23767;42.024;23.086;2023-04-15T06:10:03;13.68;;;7.88;;
37943;SDS011;23767;42.024;23.086;2023-04-15T06:12:30;15.25;;;7.55;;
37943;SDS011;23767;42.024;23.086;2023-04-15T06:14:56;10.93;;;7.50;;
37943;SDS011;23767;42.024;23.086;2023-04-15T06:17:22;18.77;;;8.30;;
37943;SDS011;23767;42.024;23.086;2023-04-15T06:19:48;13.70;;;8.73;;
37943;SDS011;23767;42.024;23.086;2023-04-15T06:22:19;16.48;;;9.88;;
37943;SDS011;23767;42.024;23.086;2023-04-15T06:24:45;15.48;;;9.95;;
37943;SDS011;23767;42.024;23.086;2023-04-15T06:27:12;18.65;;;10.95;;
37943;SDS011;23767;42.024;23.086;2023-04-15T06:29:38;15.13;;;11.00;;
37943;SDS011;23767;42.024;23.086;2023-04-15T06:32:04;20.48;;;11.57;;
37943;SDS011;23767;42.024;23.086;2023-04-15T06:34:30;17.45;;;11.60;;
37943;SDS011;23767;42.024;23.086;2023-04-15T06:36:56;16.83;;;11.00;;
37943;SDS011;23767;42.024;23.086;2023-04-15T06:39:22;18.58;;;10.88;;
37943;SDS011;23767;42.024;23.086;2023-04-15T06:41:48;17.17;;;10.43;;
37943;SDS011;23767;42.024;23.086;2023-04-15T06:44:14;17.17;;;10.52;;
37943;SDS011;23767;42.024;23.086;2023-04-15T06:46:41;16.27;;;10.60;;
37943;SDS011;23767;42.024;23.086;2023-04-15T06:49:07;20.67;;;10.23;;
37943;SDS011;23767;42.024;23.086;2023-04-15T06:51:33;13.90;;;9.80;;
37943;SDS011;23767;42.024;23.086;2023-04-15T06:54:00;17.92;;;10.05;;
37943;SDS011;23767;42.024;23.086;2023-04-15T06:56:26;19.75;;;9.63;;
37943;SDS011;23767;42.024;23.086;2023-04-15T06:58:52;15.45;;;9.60;;
37943;SDS011;23767;42.024;23.086;2023-04-15T07:01:18;22.58;;;8.82;;
37943;SDS011;23767;42.024;23.086;2023-04-15T07:03:45;12.80;;;8.48;;
37943;SDS011;23767;42.024;23.086;2023-04-15T07:06:11;15.23;;;8.48;;
37943;SDS011;23767;42.024;23.086;2023-04-15T07:08:37;13.20;;;7.80;;
37943;SDS011;23767;42.024;23.086;2023-04-15T07:11:03;11.98;;;7.88;;
37943;SDS011;23767;42.024;23.086;2023-04-15T07:13:29;10.85;;;6.90;;
37943;SDS011;23767;42.024;23.086;2023-04-15T07:15:58;13.90;;;7.07;;
37943;SDS011;23767;42.024;23.086;2023-04-15T07:18:24;11.35;;;7.05;;
37943;SDS011;23767;42.024;23.086;2023-04-15T07:20:50;15.23;;;6.82;;
37943;SDS011;23767;42.024;23.086;2023-04-15T07:23:16;12.88;;;5.90;;
37943;SDS011;23767;42.024;23.086;2023-04-15T07:25:42;12.52;;;5.72;;
37943;SDS011;23767;42.024;23.086;2023-04-15T07:28:08;10.23;;;4.07;;
37943;SDS011;23767;42.024;23.086;2023-04-15T07:30:34;12.20;;;4.85;;
37943;SDS011;23767;42.024;23.086;2023-04-15T07:33:00;10.43;;;4.55;;
37943;SDS011;23767;42.024;23.086;2023-04-15T07:35:27;12.30;;;4.72;;
37943;SDS011;23767;42.024;23.086;2023-04-15T07:37:53;10.98;;;4.80;;
37943;SDS011;23767;42.024;23.086;2023-04-15T07:40:20;12.20;;;5.38;;
37943;SDS011;23767;42.024;23.086;2023-04-15T07:42:46;12.52;;;4.50;;
37943;SDS011;23767;42.024;23.086;2023-04-15T07:45:13;11.20;;;4.68;;
37943;SDS011;23767;42.024;23.086;2023-04-15T07:47:40;11.73;;;4.68;;
37943;SDS011;23767;42.024;23.086;2023-04-15T07:50:07;9.23;;;3.90;;
37943;SDS011;23767;42.024;23.086;2023-04-15T07:52:35;11.10;;;3.80;;
37943;SDS011;23767;42.024;23.086;2023-04-15T07:55:06;10.02;;;3.85;;
37943;SDS011;23767;42.024;23.086;2023-04-15T07:57:35;9.57;;;4.20;;
37943;SDS011;23767;42.024;23.086;2023-04-15T08:00:02;10.60;;;3.60;;
37943;SDS011;23767;42.024;23.086;2023-04-15T08:02:31;8.50;;;3.40;;
37943;SDS011;23767;42.024;23.086;2023-04-15T08:04:57;10.30;;;3.60;;
37943;SDS011;23767;42.024;23.086;2023-04-15T08:07:25;11.57;;;3.17;;
37943;SDS011;23767;42.024;23.086;2023-04-15T08:09:51;8.75;;;2.40;;
37943;SDS011;23767;42.024;23.086;2023-04-15T08:12:17;9.88;;;2.38;;
37943;SDS011;23767;42.024;23.086;2023-04-15T08:14:43;8.07;;;2.00;;
37943;SDS011;23767;42.024;23.086;2023-04-15T08:17:09;8.95;;;2.60;;
37943;SDS011;23767;42.024;23.086;2023-04-15T08:19:36;8.93;;;2.00;;
37943;SDS011;23767;42.024;23.086;2023-04-15T08:22:02;7.15;;;3.22;;
37943;SDS011;23767;42.024;23.086;2023-04-15T08:24:30;6.20;;;2.20;;
37943;SDS011;23767;42.024;23.086;2023-04-15T08:26:56;5.18;;;1.55;;
37943;SDS011;23767;42.024;23.086;2023-04-15T08:29:22;4.65;;;1.67;;
37943;SDS011;23767;42.024;23.086;2023-04-15T08:31:48;5.32;;;1.30;;
37943;SDS011;23767;42.024;23.086;2023-04-15T08:34:14;6.35;;;1.83;;
37943;SDS011;23767;42.024;23.086;2023-04-15T08:36:42;5.28;;;1.83;;
37943;SDS011;23767;42.024;23.086;2023-04-15T08:39:08;4.90;;;1.98;;
37943;SDS011;23767;42.024;23.086;2023-04-15T08:41:44;5.65;;;1.80;;
37943;SDS011;23767;42.024;23.086;2023-04-15T08:44:13;5.25;;;1.80;;
37943;SDS011;23767;42.024;23.086;2023-04-15T08:46:40;4.80;;;1.50;;
37943;SDS011;23767;42.024;23.086;2023-04-15T08:49:08;6.80;;;1.80;;
37943;SDS011;23767;42.024;23.086;2023-04-15T08:51:36;5.82;;;1.55;;
37943;SDS011;23767;42.024;23.086;2023-04-15T08:54:03;6.38;;;1.42;;
37943;SDS011;23767;42.024;23.086;2023-04-15T08:56:30;5.40;;;1.30;;
37943;SDS011;23767;42.024;23.086;2023-04-15T08:58:57;4.35;;;1.30;;
37943;SDS011;23767;42.024;23.086;2023-04-15T09:01:23;4.28;;;1.30;;
37943;SDS011;23767;42.024;23.086;2023-04-15T09:03:49;3.15;;;1.23;;
37943;SDS011;23767;42.024;23.086;2023-04-15T09:06:16;4.95;;;1.48;;
37943;SDS011;23767;42.024;23.086;2023-04-15T09:08:42;3.33;;;1.00;;
37943;SDS011;23767;42.024;23.086;2023-04-15T09:11:09;4.50;;;1.20;;
37943;SDS011;23767;42.024;23.086;2023-04-15T09:13:35;4.65;;;1.30;;
37943;SDS011;23767;42.024;23.086;2023-04-15T09:16:01;4.53;;;1.20;;
37943;SDS011;23767;42.024;23.086;2023-04-15T09:18:32;4.38;;;1.20;;
37943;SDS011;23767;42.024;23.086;2023-04-15T09:21:10;3.40;;;1.10;;
37943;SDS011;23767;42.024;23.086;2023-04-15T09:23:37;3.80;;;1.15;;
37943;SDS011;23767;42.024;23.086;2023-04-15T09:26:04;4.85;;;1.27;;
37943;SDS011;23767;42.024;23.086;2023-04-15T09:28:30;4.97;;;1.30;;
37943;SDS011;23767;42.024;23.086;2023-04-15T09:30:57;4.53;;;1.58;;
37943;SDS011;23767;42.024;23.086;2023-04-15T09:33:23;1.80;;;0.77;;
37943;SDS011;23767;42.024;23.086;2023-04-15T09:38:23;7.60;;;1.40;;
37943;SDS011;23767;42.024;23.086;2023-04-15T09:40:49;4.22;;;1.20;;
37943;SDS011;23767;42.024;23.086;2023-04-15T09:43:15;4.18;;;1.45;;
37943;SDS011;23767;42.024;23.086;2023-04-15T09:45:48;4.95;;;1.17;;
37943;SDS011;23767;42.024;23.086;2023-04-15T09:50:41;2.80;;;1.00;;
37943;SDS011;23767;42.024;23.086;2023-04-15T09:53:14;3.15;;;1.15;;
37943;SDS011;23767;42.024;23.086;2023-04-15T09:55:45;4.07;;;1.27;;
37943;SDS011;23767;42.024;23.086;2023-04-15T09:58:18;5.18;;;1.30;;
37943;SDS011;23767;42.024;23.086;2023-04-15T10:00:46;4.80;;;1.20;;
37943;SDS011;23767;42.024;23.086;2023-04-15T10:03:13;3.33;;;1.08;;
37943;SDS011;23767;42.024;23.086;2023-04-15T10:05:40;6.47;;;1.35;;
37943;SDS011;23767;42.024;23.086;2023-04-15T10:08:06;4.13;;;1.27;;
37943;SDS011;23767;42.024;23.086;2023-04-15T10:10:33;5.38;;;2.22;;
37943;SDS011;23767;42.024;23.086;2023-04-15T10:12:59;2.45;;;0.90;;
37943;SDS011;23767;42.024;23.086;2023-04-15T10:15:26;4.00;;;1.00;;
37943;SDS011;23767;42.024;23.086;2023-04-15T10:17:53;5.40;;;1.10;;
37943;SDS011;23767;42.024;23.086;2023-04-15T10:20:20;4.38;;;1.35;;
37943;SDS011;23767;42.024;23.086;2023-04-15T10:22:47;4.53;;;1.42;;
37943;SDS011;23767;42.024;23.086;2023-04-15T10:25:14;5.78;;;1.40;;
37943;SDS011;23767;42.024;23.086;2023-04-15T10:27:40;4.40;;;1.45;;
37943;SDS011;23767;42.024;23.086;2023-04-15T10:30:07;3.60;;;1.27;;
37943;SDS011;23767;42.024;23.086;2023-04-15T10:32:33;4.80;;;1.42;;
37943;SDS011;23767;42.024;23.086;2023-04-15T10:34:59;5.38;;;1.70;;
37943;SDS011;23767;42.024;23.086;2023-04-15T10:37:35;5.88;;;1.88;;
37943;SDS011;23767;42.024;23.086;2023-04-15T10:40:46;3.88;;;1.42;;
37943;SDS011;23767;42.024;23.086;2023-04-15T10:42:57;4.72;;;1.20;;
37943;SDS011;23767;42.024;23.086;2023-04-15T10:45:24;4.35;;;1.30;;
37943;SDS011;23767;42.024;23.086;2023-04-15T10:47:54;6.10;;;1.65;;
37943;SDS011;23767;42.024;23.086;2023-04-15T10:50:21;3.90;;;1.42;;
37943;SDS011;23767;42.024;23.086;2023-04-15T10:52:50;3.97;;;1.35;;
37943;SDS011;23767;42.024;23.086;2023-04-15T10:55:21;6.10;;;1.38;;
37943;SDS011;23767;42.024;23.086;2023-04-15T10:57:50;1.98;;;0.90;;
37943;SDS011;23767;42.024;23.086;2023-04-15T11:00:17;5.50;;;1.15;;
37943;SDS011;23767;42.024;23.086;2023-04-15T11:02:47;4.47;;;1.58;;
37943;SDS011;23767;42.024;23.086;2023-04-15T11:05:17;2.85;;;1.20;;
37943;SDS011;23767;42.024;23.086;2023-04-15T11:12:45;5.43;;;1.20;;
37943;SDS011;23767;42.024;23.086;2023-04-15T11:17:56;3.03;;;1.17;;
37943;SDS011;23767;42.024;23.086;2023-04-15T11:20:22;3.65;;;0.93;;
37943;SDS011;23767;42.024;23.086;2023-04-15T11:22:54;4.95;;;1.27;;
37943;SDS011;23767;42.024;23.086;2023-04-15T11:25:27;1.92;;;1.10;;
37943;SDS011;23767;42.024;23.086;2023-04-15T11:27:53;3.85;;;1.02;;
37943;SDS011;23767;42.024;23.086;2023-04-15T11:30:21;3.60;;;1.10;;
37943;SDS011;23767;42.024;23.086;2023-04-15T11:32:48;2.25;;;0.70;;
37943;SDS011;23767;42.024;23.086;2023-04-15T11:35:15;3.53;;;1.10;;
37943;SDS011;23767;42.024;23.086;2023-04-15T11:37:42;3.15;;;0.90;;
37943;SDS011;23767;42.024;23.086;2023-04-15T11:40:09;2.90;;;0.82;;
37943;SDS011;23767;42.024;23.086;2023-04-15T11:42:35;3.30;;;1.10;;
37943;SDS011;23767;42.024;23.086;2023-04-15T11:45:07;2.92;;;0.95;;
37943;SDS011;23767;42.024;23.086;2023-04-15T11:47:37;3.75;;;1.40;;
37943;SDS011;23767;42.024;23.086;2023-04-15T11:53:00;4.45;;;1.30;;
37943;SDS011;23767;42.024;23.086;2023-04-15T11:55:27;1.80;;;0.82;;
37943;SDS011;23767;42.024;23.086;2023-04-15T12:00:38;4.20;;;1.10;;
37943;SDS011;23767;42.024;23.086;2023-04-15T12:11:13;4.20;;;1.23;;
37943;SDS011;23767;42.024;23.086;2023-04-15T12:13:43;3.30;;;1.10;;
37943;SDS011;23767;42.024;23.086;2023-04-15T12:16:09;3.70;;;1.38;;
37943;SDS011;23767;42.024;23.086;2023-04-15T12:18:38;2.72;;;1.00;;
37943;SDS011;23767;42.024;23.086;2023-04-15T12:21:10;4.40;;;1.00;;
37943;SDS011;23767;42.024;23.086;2023-04-15T12:23:37;3.08;;;1.13;;
37943;SDS011;23767;42.024;23.086;2023-04-15T12:26:04;3.53;;;1.20;;
37943;SDS011;23767;42.024;23.086;2023-04-15T12:28:32;4.57;;;1.40;;
37943;SDS011;23767;42.024;23.086;2023-04-15T12:31:05;3.63;;;1.30;;
37943;SDS011;23767;42.024;23.086;2023-04-15T12:33:31;3.80;;;1.35;;
37943;SDS011;23767;42.024;23.086;2023-04-15T12:35:58;5.82;;;1.40;;
37943;SDS011;23767;42.024;23.086;2023-04-15T12:38:24;4.15;;;1.23;;
37943;SDS011;23767;42.024;23.086;2023-04-15T12:40:50;2.78;;;1.15;;
37943;SDS011;23767;42.024;23.086;2023-04-15T12:43:16;5.30;;;1.45;;
37943;SDS011;23767;42.024;23.086;2023-04-15T12:45:42;4.10;;;1.15;;
37943;SDS011;23767;42.024;23.086;2023-04-15T12:48:08;4.47;;;1.30;;
37943;SDS011;23767;42.024;23.086;2023-04-15T12:50:34;4.65;;;1.60;;
37943;SDS011;23767;42.024;23.086;2023-04-15T12:53:01;5.75;;;1.40;;
37943;SDS011;23767;42.024;23.086;2023-04-15T12:55:27;4.97;;;1.38;;
37943;SDS011;23767;42.024;23.086;2023-04-15T12:57:54;4.10;;;1.30;;
37943;SDS011;23767;42.024;23.086;2023-04-15T13:00:21;2.80;;;1.13;;
37943;SDS011;23767;42.024;23.086;2023-04-15T13:02:47;3.05;;;1.17;;
37943;SDS011;23767;42.024;23.086;2023-04-15T13:05:13;3.85;;;1.15;;
37943;SDS011;23767;42.024;23.086;2023-04-15T13:07:40;3.40;;;1.13;;
37943;SDS011;23767;42.024;23.086;2023-04-15T13:10:06;2.58;;;1.17;;
37943;SDS011;23767;42.024;23.086;2023-04-15T13:12:32;4.05;;;1.30;;
37943;SDS011;23767;42.024;23.086;2023-04-15T13:15:02;4.95;;;1.60;;
37943;SDS011;23767;42.024;23.086;2023-04-15T13:17:28;3.47;;;1.10;;
37943;SDS011;23767;42.024;23.086;2023-04-15T13:19:55;3.25;;;1.20;;
37943;SDS011;23767;42.024;23.086;2023-04-15T13:22:22;3.58;;;1.05;;
37943;SDS011;23767;42.024;23.086;2023-04-15T13:24:48;5.13;;;1.33;;
37943;SDS011;23767;42.024;23.086;2023-04-15T13:27:15;3.28;;;1.10;;
37943;SDS011;23767;42.024;23.086;2023-04-15T13:29:41;5.05;;;1.30;;
37943;SDS011;23767;42.024;23.086;2023-04-15T13:32:07;2.83;;;1.20;;
37943;SDS011;23767;42.024;23.086;2023-04-15T13:34:33;3.05;;;1.20;;
37943;SDS011;23767;42.024;23.086;2023-04-15T13:37:04;5.60;;;1.50;;
37943;SDS011;23767;42.024;23.086;2023-04-15T13:39:31;4.80;;;1.80;;
37943;SDS011;23767;42.024;23.086;2023-04-15T13:41:57;3.33;;;1.42;;
37943;SDS011;23767;42.024;23.086;2023-04-15T13:44:23;5.63;;;1.20;;
37943;SDS011;23767;42.024;23.086;2023-04-15T13:46:49;3.72;;;1.27;;
37943;SDS011;23767;42.024;23.086;2023-04-15T13:49:15;2.50;;;1.00;;
37943;SDS011;23767;42.024;23.086;2023-04-15T13:51:41;7.47;;;1.67;;
37943;SDS011;23767;42.024;23.086;2023-04-15T13:54:07;3.00;;;1.30;;
37943;SDS011;23767;42.024;23.086;2023-04-15T13:56:33;3.75;;;1.00;;
37943;SDS011;23767;42.024;23.086;2023-04-15T13:59:00;3.25;;;1.05;;
37943;SDS011;23767;42.024;23.086;2023-04-15T14:01:27;4.43;;;1.48;;
37943;SDS011;23767;42.024;23.086;2023-04-15T14:03:53;5.15;;;2.20;;
37943;SDS011;23767;42.024;23.086;2023-04-15T14:06:19;5.65;;;2.90;;
37943;SDS011;23767;42.024;23.086;2023-04-15T14:08:45;3.80;;;1.60;;
37943;SDS011;23767;42.024;23.086;2023-04-15T14:11:11;6.97;;;2.40;;
37943;SDS011;23767;42.024;23.086;2023-04-15T14:13:37;4.78;;;1.42;;
37943;SDS011;23767;42.024;23.086;2023-04-15T14:16:04;5.57;;;1.40;;
37943;SDS011;23767;42.024;23.086;2023-04-15T14:18:30;4.70;;;1.60;;
37943;SDS011;23767;42.024;23.086;2023-04-15T14:20:56;4.47;;;1.60;;
37943;SDS011;23767;42.024;23.086;2023-04-15T14:23:22;4.00;;;1.23;;
37943;SDS011;23767;42.024;23.086;2023-04-15T14:25:49;5.30;;;1.60;;
37943;SDS011;23767;42.024;23.086;2023-04-15T14:28:15;3.50;;;1.40;;
37943;SDS011;23767;42.024;23.086;2023-04-15T14:30:42;3.47;;;1.30;;
37943;SDS011;23767;42.024;23.086;2023-04-15T14:33:08;3.78;;;1.50;;
37943;SDS011;23767;42.024;23.086;2023-04-15T14:35:34;4.28;;;1.30;;
37943;SDS011;23767;42.024;23.086;2023-04-15T14:38:00;6.22;;;2.50;;
37943;SDS011;23767;42.024;23.086;2023-04-15T14:40:27;3.88;;;1.15;;
37943;SDS011;23767;42.024;23.086;2023-04-15T14:42:53;4.18;;;1.30;;
37943;SDS011;23767;42.024;23.086;2023-04-15T14:45:19;3.97;;;1.23;;
37943;SDS011;23767;42.024;23.086;2023-04-15T14:47:45;3.53;;;1.20;;
37943;SDS011;23767;42.024;23.086;2023-04-15T14:50:11;4.43;;;1.50;;
37943;SDS011;23767;42.024;23.086;2023-04-15T14:52:37;2.78;;;1.20;;